Time;durP1;ratioP1;P1;durP2;ratioP2;P2;SDS_P1;SDS_P2;PMS_P1;PMS_P2;Temp;Humidity;BMP_temperature;BMP_pressure;BME280_temperature;BME280_humidity;BME280_pressure;Samples;Min_cycle;Max_cycle;Signal;HPM_P1;HPM_P2
2022/08/31 00:06:00;;;;;;;13.43;11.02;;;13.60;99.90;;;;;;20712164;28;20038;-58
2022/08/31 00:16:04;;;;;;;12.63;10.77;;;13.60;99.90;;;;;;20743564;28;20029;-56
2022/08/31 00:26:06;;;;;;;11.85;9.80;;;13.60;99.90;;;;;;20743413;28;20549;-57
2022/08/31 00:36:12;;;;;;;8.15;7.35;;;13.60;99.90;;;;;;20742491;28;20038;-58
2022/08/31 00:46:23;;;;;;;10.10;7.13;;;13.60;99.90;;;;;;20725054;28;20057;-57
2022/08/31 00:56:26;;;;;;;;;;;13.60;99.90;;;;;;20710339;28;20094;-58
2022/08/31 01:06:29;;;;;;;6.25;5.63;;;13.50;99.90;;;;;;20724137;28;19917;-57
2022/08/31 01:16:39;;;;;;;7.55;5.97;;;13.40;99.90;;;;;;20709416;28;20045;-58
2022/08/31 01:26:42;;;;;;;6.43;5.82;;;13.30;99.90;;;;;;20706582;28;20390;-59
2022/08/31 01:36:47;;;;;;;6.05;5.25;;;13.30;99.90;;;;;;20738841;28;20045;-55
2022/08/31 01:46:51;;;;;;;4.82;3.88;;;13.20;99.90;;;;;;20738209;28;20332;-59
2022/08/31 01:56:55;;;;;;;5.10;3.40;;;13.00;99.90;;;;;;20738826;28;20168;-59
2022/08/31 02:07:19;;;;;;;3.50;3.20;;;12.90;99.90;;;;;;20705740;28;20108;-53
2022/08/31 02:17:21;;;;;;;3.95;3.20;;;12.80;99.90;;;;;;20737736;28;20038;-54
2022/08/31 02:27:24;;;;;;;3.00;2.67;;;12.70;99.90;;;;;;20705256;28;20045;-54
2022/08/31 02:37:27;;;;;;;4.30;2.70;;;12.70;99.90;;;;;;20710102;28;20026;-60
2022/08/31 02:47:32;;;;;;;4.72;2.85;;;12.60;99.90;;;;;;20750512;28;20100;-52
2022/08/31 02:57:55;;;;;;;2.90;2.20;;;12.60;99.90;;;;;;20734088;28;20406;-53
2022/08/31 03:07:57;;;;;;;2.47;2.10;;;12.70;99.90;;;;;;20716872;28;20069;-52
2022/08/31 03:18:00;;;;;;;2.63;2.25;;;12.70;99.90;;;;;;20716022;28;20442;-53
2022/08/31 03:28:03;;;;;;;3.47;2.67;;;12.60;99.90;;;;;;20715682;28;20394;-60
2022/08/31 03:38:11;;;;;;;3.08;2.13;;;12.50;99.90;;;;;;20730807;28;20367;-59
2022/08/31 03:48:15;;;;;;;2.78;2.10;;;12.50;99.90;;;;;;20713009;28;20049;-58
2022/08/31 03:58:20;;;;;;;3.08;2.30;;;12.40;99.90;;;;;;20697425;28;20057;-52
2022/08/31 04:08:24;;;;;;;4.05;2.40;;;12.40;99.90;;;;;;20728102;28;20038;-49
2022/08/31 04:19:03;;;;;;;2.65;2.40;;;12.40;99.90;;;;;;20727237;28;20034;-59
2022/08/31 04:29:09;;;;;;;3.30;3.00;;;12.40;99.90;;;;;;20726831;28;20486;-53
2022/08/31 04:39:12;;;;;;;3.72;2.83;;;12.50;99.90;;;;;;20726012;28;20040;-53
2022/08/31 04:49:35;;;;;;;2.78;2.40;;;12.30;99.90;;;;;;20743664;28;20560;-53
2022/08/31 04:59:38;;;;;;;3.03;2.40;;;12.40;99.90;;;;;;20707832;28;20438;-52
2022/08/31 05:10:10;;;;;;;3.88;2.03;;;12.50;99.90;;;;;;20723514;28;20081;-53
2022/08/31 05:20:13;;;;;;;1.98;1.70;;;12.50;99.90;;;;;;20739234;28;20037;-54
2022/08/31 05:30:16;;;;;;;1.85;1.65;;;12.60;99.90;;;;;;20706409;28;20092;-54
2022/08/31 05:40:23;;;;;;;1.63;1.52;;;12.60;99.90;;;;;;20706229;28;20092;-53
2022/08/31 05:50:26;;;;;;;1.50;1.40;;;12.80;99.90;;;;;;20721249;28;20050;-54
2022/08/31 06:00:29;;;;;;;2.55;1.20;;;13.00;99.90;;;;;;20705576;28;20038;-58
2022/08/31 06:10:50;;;;;;;1.50;1.38;;;13.30;99.90;;;;;;20708675;28;20100;-54
2022/08/31 06:21:08;;;;;;;1.48;1.30;;;13.70;99.90;;;;;;20719857;28;20065;-55
2022/08/31 06:31:36;;;;;;;1.88;1.20;;;13.60;99.90;;;;;;20719057;28;20099;-54
2022/08/31 06:41:41;;;;;;;1.13;0.80;;;13.90;99.90;;;;;;20718597;28;20088;-60
2022/08/31 06:52:03;;;;;;;1.25;0.98;;;15.40;99.90;;;;;;20717146;28;20097;-58
2022/08/31 07:02:08;;;;;;;1.10;1.00;;;16.20;99.90;;;;;;20733508;28;20077;-56
2022/08/31 07:12:12;;;;;;;1.83;0.98;;;16.70;99.90;;;;;;20748506;28;20034;-55
2022/08/31 07:22:15;;;;;;;1.50;1.40;;;17.50;99.90;;;;;;20713852;28;20041;-54
2022/08/31 07:32:19;;;;;;;2.33;1.50;;;19.00;99.90;;;;;;20730537;28;20057;-59
2022/08/31 07:42:29;;;;;;;1.15;1.05;;;19.70;99.90;;;;;;20746230;28;20509;-59
2022/08/31 07:52:33;;;;;;;1.80;1.23;;;20.10;99.90;;;;;;20728453;28;20053;-57
2022/08/31 08:03:00;;;;;;;1.67;1.10;;;21.00;99.90;;;;;;20478242;28;20051;-56
2022/08/31 08:13:07;;;;;;;1.30;1.15;;;21.20;99.90;;;;;;20461925;28;20350;-59
2022/08/31 08:23:25;;;;;;;1.48;1.10;;;20.90;99.90;;;;;;20477066;28;20043;-58
2022/08/31 08:33:46;;;;;;;1.40;1.30;;;21.60;99.90;;;;;;20540151;28;20037;-53
2022/08/31 08:43:53;;;;;;;1.65;1.25;;;22.70;99.90;;;;;;20724744;28;20037;-56
2022/08/31 08:54:08;;;;;;;1.40;1.23;;;23.20;99.90;;;;;;20724121;28;20049;-54
2022/08/31 09:04:43;;;;;;;1.60;1.50;;;22.20;99.90;;;;;;20707646;28;20049;-54
2022/08/31 09:15:35;;;;;;;3.03;2.72;;;21.00;99.90;;;;;;20723130;28;20450;-53
2022/08/31 09:25:52;;;;;;;2.70;2.50;;;19.80;99.90;;;;;;20707133;28;20068;-53
2022/08/31 09:36:21;;;;;;;3.35;2.95;;;18.80;99.90;;;;;;20738685;28;20038;-54
2022/08/31 09:46:29;;;;;;;2.53;2.30;;;18.60;99.90;;;;;;20725996;28;20050;-55
2022/08/31 09:56:54;;;;;;;3.78;2.72;;;19.10;99.90;;;;;;20754444;28;20038;-55
2022/08/31 10:07:23;;;;;;;3.25;3.03;;;20.70;99.90;;;;;;20753457;28;20029;-55
2022/08/31 10:17:29;;;;;;;3.05;2.75;;;22.40;99.90;;;;;;20736173;28;20113;-55
2022/08/31 10:27:42;;;;;;;3.08;2.80;;;21.30;99.90;;;;;;20751784;28;20108;-56
2022/08/31 10:38:07;;;;;;;3.78;3.35;;;20.80;99.90;;;;;;20750653;28;20549;-55
2022/08/31 10:48:11;;;;;;;4.32;3.22;;;20.60;99.90;;;;;;20749785;28;20042;-55
2022/08/31 10:58:30;;;;;;;3.10;2.42;;;20.80;99.90;;;;;;20749316;28;20029;-54
2022/08/31 11:08:52;;;;;;;2.55;2.35;;;23.00;99.90;;;;;;20748547;28;20096;-55
2022/08/31 11:19:24;;;;;;;3.40;3.10;;;22.60;99.90;;;;;;20731713;28;20080;-60
2022/08/31 11:29:42;;;;;;;4.38;3.97;;;22.10;99.90;;;;;;20747236;28;20034;-60
2022/08/31 11:39:48;;;;;;;8.13;6.63;;;21.10;99.90;;;;;;20699596;28;20084;-59
2022/08/31 11:49:54;;;;;;;8.80;7.90;;;20.30;99.90;;;;;;20728231;28;20100;-54
2022/08/31 11:59:59;;;;;;;6.78;6.07;;;21.70;99.90;;;;;;20728775;28;20426;-56
2022/08/31 12:10:16;;;;;;;8.98;7.15;;;22.50;99.90;;;;;;20743805;28;20042;-59
2022/08/31 12:31:08;;;;;;;5.20;4.72;;;22.40;99.90;;;;;;20726344;28;20560;-59
2022/08/31 12:41:13;;;;;;;6.40;5.78;;;22.90;99.90;;;;;;20741808;28;20153;-60
2022/08/31 12:51:43;;;;;;;7.78;7.07;;;22.50;99.90;;;;;;20724563;28;20153;-61
2022/08/31 13:01:48;;;;;;;9.65;8.23;;;21.20;99.90;;;;;;20724270;28;20042;-60
2022/08/31 13:11:53;;;;;;;10.82;9.25;;;20.90;99.90;;;;;;20739452;28;20045;-59
2022/08/31 13:21:59;;;;;;;8.43;7.63;;;22.60;99.90;;;;;;20738789;28;20107;-60
2022/08/31 13:32:30;;;;;;;12.13;10.93;;;22.00;99.90;;;;;;20738825;28;20042;-60
2022/08/31 13:42:48;;;;;;;16.92;15.13;;;20.50;99.90;;;;;;20722653;28;20359;-60
2022/08/31 13:52:57;;;;;;;15.25;13.43;;;19.30;99.90;;;;;;20738031;28;20050;-52
2022/08/31 14:03:43;;;;;;;16.58;14.80;;;18.70;99.90;;;;;;20738869;28;20161;-53
2022/08/31 14:13:49;;;;;;;18.42;16.50;;;18.70;99.90;;;;;;20736238;28;20097;-59
2022/08/31 14:24:03;;;;;;;18.15;13.70;;;18.70;99.90;;;;;;20736121;28;20050;-52
2022/08/31 14:34:24;;;;;;;11.13;9.90;;;19.50;99.90;;;;;;20744067;28;20057;-57
2022/08/31 14:44:31;;;;;;;12.18;10.88;;;19.90;99.90;;;;;;20751111;28;20021;-60
2022/08/31 14:54:35;;;;;;;14.70;12.98;;;19.40;99.90;;;;;;20750749;28;20100;-54
2022/08/31 15:04:38;;;;;;;18.95;16.00;;;18.90;99.90;;;;;;20733214;28;20121;-53
2022/08/31 15:14:43;;;;;;;15.38;13.80;;;18.40;99.90;;;;;;20748900;28;20033;-52
2022/08/31 15:24:46;;;;;;;15.88;14.20;;;18.20;99.90;;;;;;20716125;28;20037;-53
2022/08/31 15:34:56;;;;;;;14.32;12.88;;;18.00;99.90;;;;;;20747810;28;20060;-54
2022/08/31 15:44:59;;;;;;;15.15;13.32;;;18.40;99.90;;;;;;20692183;28;20053;-54
2022/08/31 15:55:03;;;;;;;17.17;14.68;;;18.40;99.90;;;;;;20730267;28;20038;-52
2022/08/31 16:05:07;;;;;;;20.92;18.73;;;18.30;99.90;;;;;;20745402;28;20041;-53
2022/08/31 16:15:10;;;;;;;21.38;18.73;;;18.00;99.90;;;;;;20728034;28;20042;-54
2022/08/31 16:25:13;;;;;;;21.98;19.65;;;17.60;99.90;;;;;;20743907;28;20112;-53
2022/08/31 16:35:16;;;;;;;18.92;17.02;;;17.50;99.90;;;;;;20742907;28;20038;-53
2022/08/31 16:45:18;;;;;;;16.67;14.98;;;17.50;99.90;;;;;;20702165;28;20100;-58
2022/08/31 16:55:22;;;;;;;17.52;15.73;;;17.50;99.90;;;;;;20762582;28;20461;-50
2022/08/31 17:05:24;;;;;;;17.70;15.85;;;17.30;99.90;;;;;;20756695;28;20095;-58
2022/08/31 17:15:28;;;;;;;21.85;19.55;;;16.90;99.90;;;;;;20720682;28;20034;-53
2022/08/31 17:25:34;;;;;;;22.23;19.40;;;16.70;99.90;;;;;;20784105;28;20033;-53
2022/08/31 17:35:41;;;;;;;23.90;21.35;;;16.50;99.90;;;;;;20741841;28;20042;-51
2022/08/31 17:45:43;;;;;;;23.60;21.15;;;16.40;99.90;;;;;;20755689;28;20088;-53
2022/08/31 17:55:54;;;;;;;32.60;27.40;;;16.20;99.90;;;;;;20719890;28;20494;-53
2022/08/31 18:05:57;;;;;;;21.60;19.15;;;16.00;99.90;;;;;;20723344;28;20490;-54
2022/08/31 18:16:01;;;;;;;21.30;19.02;;;15.80;99.90;;;;;;20754498;28;20038;-53
2022/08/31 18:26:13;;;;;;;28.30;22.27;;;15.60;99.90;;;;;;20733863;28;20487;-58
2022/08/31 18:36:22;;;;;;;26.08;22.38;;;15.40;99.90;;;;;;20738339;28;20407;-53
2022/08/31 18:46:25;;;;;;;22.23;18.58;;;15.40;99.90;;;;;;20757278;28;20053;-52
2022/08/31 18:56:30;;;;;;;23.75;21.25;;;15.30;99.90;;;;;;20731838;28;20045;-53
2022/08/31 19:06:34;;;;;;;19.27;17.20;;;15.10;99.90;;;;;;20734393;28;20030;-52
2022/08/31 19:16:37;;;;;;;10.93;9.82;;;15.10;99.90;;;;;;20749563;28;20069;-53
2022/08/31 19:26:44;;;;;;;11.65;10.23;;;15.10;99.90;;;;;;20750301;28;20427;-58
2022/08/31 19:36:48;;;;;;;11.02;8.88;;;14.90;99.90;;;;;;20731880;28;20057;-54
2022/08/31 19:46:51;;;;;;;5.82;5.22;;;14.70;99.90;;;;;;20753548;28;20105;-52
2022/08/31 19:56:54;;;;;;;5.47;4.78;;;14.60;99.90;;;;;;20726602;28;20068;-53
2022/08/31 20:06:58;;;;;;;5.45;4.75;;;14.50;99.90;;;;;;20743345;28;20434;-53
2022/08/31 20:17:01;;;;;;;4.68;2.50;;;14.40;99.90;;;;;;20740995;28;20050;-53
2022/08/31 20:27:04;;;;;;;3.08;2.35;;;14.30;99.90;;;;;;20721021;28;20065;-58
2022/08/31 20:37:07;;;;;;;5.68;3.40;;;14.20;99.90;;;;;;20722740;28;20084;-52
2022/08/31 20:57:37;;;;;;;3.38;3.08;;;14.10;99.90;;;;;;20722947;28;20777;-53
2022/08/31 21:07:40;;;;;;;3.38;3.08;;;14.10;99.90;;;;;;20721705;28;20386;-52
2022/08/31 21:17:44;;;;;;;3.70;3.40;;;14.10;99.90;;;;;;20723637;28;20084;-57
2022/08/31 21:27:47;;;;;;;3.80;2.90;;;14.10;99.90;;;;;;20733878;28;20570;-53
2022/08/31 21:37:49;;;;;;;2.10;1.90;;;14.00;99.90;;;;;;20727727;28;20116;-58
2022/08/31 21:47:52;;;;;;;2.20;1.90;;;13.90;99.90;;;;;;20754002;28;20045;-53
2022/08/31 21:57:55;;;;;;;4.43;2.20;;;13.70;99.90;;;;;;20741437;28;20572;-53
2022/08/31 22:07:57;;;;;;;2.95;2.50;;;13.50;99.90;;;;;;20751179;28;20092;-53
2022/08/31 22:18:01;;;;;;;3.20;2.90;;;13.50;99.90;;;;;;20734370;28;20034;-56
2022/08/31 22:28:08;;;;;;;3.72;3.30;;;13.50;99.90;;;;;;20754417;28;20096;-54
2022/08/31 22:38:13;;;;;;;3.15;2.70;;;13.80;99.90;;;;;;20732455;28;20034;-51
2022/08/31 22:48:16;;;;;;;2.30;2.10;;;14.10;99.90;;;;;;20732118;28;20053;-52
2022/08/31 22:58:19;;;;;;;3.58;2.70;;;14.20;99.90;;;;;;20753976;28;20045;-50
2022/08/31 23:08:22;;;;;;;4.82;3.65;;;14.20;99.90;;;;;;20730998;28;20399;-59
2022/08/31 23:18:26;;;;;;;3.00;2.70;;;14.20;99.90;;;;;;20729128;28;20030;-58
2022/08/31 23:28:30;;;;;;;2.80;2.30;;;14.10;99.90;;;;;;20697160;28;20100;-55
2022/08/31 23:38:33;;;;;;;3.20;2.72;;;14.00;99.90;;;;;;20745664;28;20046;-51
2022/08/31 23:48:36;;;;;;;5.00;2.58;;;13.90;99.90;;;;;;20729570;28;20093;-58
2022/08/31 23:58:43;;;;;;;2.05;1.85;;;13.80;99.90;;;;;;20743457;28;20034;-51
